sensor_id;sensor_type;location;lat;lon;timestamp;temperature;humidity
79055;DHT22;68452;47.186;-1.528;2023-07-02T00:00:06;20.70;64.30
79055;DHT22;68452;47.186;-1.528;2023-07-02T00:02:32;20.70;64.20
79055;DHT22;68452;47.186;-1.528;2023-07-02T00:04:58;20.60;64.20
79055;DHT22;68452;47.186;-1.528;2023-07-02T00:07:24;20.60;64.30
79055;DHT22;68452;47.186;-1.528;2023-07-02T00:09:51;20.60;64.30
79055;DHT22;68452;47.186;-1.528;2023-07-02T00:12:17;20.60;64.40
79055;DHT22;68452;47.186;-1.528;2023-07-02T00:14:43;20.50;64.40
79055;DHT22;68452;47.186;-1.528;2023-07-02T00:17:09;20.50;64.30
79055;DHT22;68452;47.186;-1.528;2023-07-02T00:19:38;20.50;64.20
79055;DHT22;68452;47.186;-1.528;2023-07-02T00:22:08;20.50;64.20
79055;DHT22;68452;47.186;-1.528;2023-07-02T00:24:34;20.50;64.30
79055;DHT22;68452;47.186;-1.528;2023-07-02T00:27:00;20.50;64.30
79055;DHT22;68452;47.186;-1.528;2023-07-02T00:29:26;20.50;64.10
79055;DHT22;68452;47.186;-1.528;2023-07-02T00:31:52;20.40;64.10
79055;DHT22;68452;47.186;-1.528;2023-07-02T00:34:18;20.40;64.20
79055;DHT22;68452;47.186;-1.528;2023-07-02T00:36:44;20.40;64.20
79055;DHT22;68452;47.186;-1.528;2023-07-02T00:39:10;20.30;64.10
79055;DHT22;68452;47.186;-1.528;2023-07-02T00:41:39;20.30;64.30
79055;DHT22;68452;47.186;-1.528;2023-07-02T00:44:05;20.30;64.20
79055;DHT22;68452;47.186;-1.528;2023-07-02T00:46:31;20.30;64.20
79055;DHT22;68452;47.186;-1.528;2023-07-02T00:48:59;20.20;64.10
79055;DHT22;68452;47.186;-1.528;2023-07-02T00:51:26;20.20;64.10
79055;DHT22;68452;47.186;-1.528;2023-07-02T00:53:54;20.20;64.10
79055;DHT22;68452;47.186;-1.528;2023-07-02T00:56:21;20.20;64.10
79055;DHT22;68452;47.186;-1.528;2023-07-02T00:58:48;20.20;64.00
79055;DHT22;68452;47.186;-1.528;2023-07-02T01:01:17;20.10;64.20
79055;DHT22;68452;47.186;-1.528;2023-07-02T01:03:58;20.10;64.00
79055;DHT22;68452;47.186;-1.528;2023-07-02T01:06:31;20.10;64.20
79055;DHT22;68452;47.186;-1.528;2023-07-02T01:08:58;20.10;64.10
79055;DHT22;68452;47.186;-1.528;2023-07-02T01:17:00;20.10;64.10
79055;DHT22;68452;47.186;-1.528;2023-07-02T01:19:53;20.10;63.90
79055;DHT22;68452;47.186;-1.528;2023-07-02T01:22:25;20.10;64.00
79055;DHT22;68452;47.186;-1.528;2023-07-02T01:24:52;20.10;63.90
79055;DHT22;68452;47.186;-1.528;2023-07-02T01:27:20;20.00;63.90
79055;DHT22;68452;47.186;-1.528;2023-07-02T01:29:50;20.00;64.00
79055;DHT22;68452;47.186;-1.528;2023-07-02T01:32:16;20.00;64.00
79055;DHT22;68452;47.186;-1.528;2023-07-02T01:34:42;20.00;63.90
79055;DHT22;68452;47.186;-1.528;2023-07-02T01:37:09;20.00;63.90
79055;DHT22;68452;47.186;-1.528;2023-07-02T01:39:35;20.00;63.90
79055;DHT22;68452;47.186;-1.528;2023-07-02T01:42:12;20.00;63.90
79055;DHT22;68452;47.186;-1.528;2023-07-02T01:44:40;20.00;63.90
79055;DHT22;68452;47.186;-1.528;2023-07-02T01:47:06;20.00;63.90
79055;DHT22;68452;47.186;-1.528;2023-07-02T01:49:32;19.90;63.90
79055;DHT22;68452;47.186;-1.528;2023-07-02T01:51:58;19.90;63.70
79055;DHT22;68452;47.186;-1.528;2023-07-02T01:54:25;19.90;63.90
79055;DHT22;68452;47.186;-1.528;2023-07-02T01:56:55;19.90;63.80
79055;DHT22;68452;47.186;-1.528;2023-07-02T01:59:22;19.90;63.80
79055;DHT22;68452;47.186;-1.528;2023-07-02T02:01:48;19.90;63.80
79055;DHT22;68452;47.186;-1.528;2023-07-02T02:04:14;19.90;63.90
79055;DHT22;68452;47.186;-1.528;2023-07-02T02:06:40;19.80;63.80
79055;DHT22;68452;47.186;-1.528;2023-07-02T02:09:07;19.90;63.70
79055;DHT22;68452;47.186;-1.528;2023-07-02T02:11:37;19.80;63.70
79055;DHT22;68452;47.186;-1.528;2023-07-02T02:14:03;19.80;63.80
79055;DHT22;68452;47.186;-1.528;2023-07-02T02:16:29;19.80;63.80
79055;DHT22;68452;47.186;-1.528;2023-07-02T02:18:55;19.80;63.70
79055;DHT22;68452;47.186;-1.528;2023-07-02T02:21:22;19.80;63.60
79055;DHT22;68452;47.186;-1.528;2023-07-02T02:23:48;19.80;63.80
79055;DHT22;68452;47.186;-1.528;2023-07-02T02:26:14;19.80;63.70
79055;DHT22;68452;47.186;-1.528;2023-07-02T02:28:42;19.80;63.70
79055;DHT22;68452;47.186;-1.528;2023-07-02T02:31:08;19.80;63.50
79055;DHT22;68452;47.186;-1.528;2023-07-02T02:33:34;19.70;63.40
79055;DHT22;68452;47.186;-1.528;2023-07-02T02:36:01;19.70;63.70
79055;DHT22;68452;47.186;-1.528;2023-07-02T02:38:27;19.80;63.60
79055;DHT22;68452;47.186;-1.528;2023-07-02T02:40:53;19.70;63.70
79055;DHT22;68452;47.186;-1.528;2023-07-02T02:43:19;19.70;63.70
79055;DHT22;68452;47.186;-1.528;2023-07-02T02:45:46;19.70;63.80
79055;DHT22;68452;47.186;-1.528;2023-07-02T02:48:12;19.70;63.70
79055;DHT22;68452;47.186;-1.528;2023-07-02T02:50:38;19.70;63.60
79055;DHT22;68452;47.186;-1.528;2023-07-02T02:53:10;19.70;63.60
79055;DHT22;68452;47.186;-1.528;2023-07-02T02:55:36;19.70;63.60
79055;DHT22;68452;47.186;-1.528;2023-07-02T02:58:02;19.60;63.50
79055;DHT22;68452;47.186;-1.528;2023-07-02T03:00:28;19.60;63.50
79055;DHT22;68452;47.186;-1.528;2023-07-02T03:02:54;19.60;63.50
79055;DHT22;68452;47.186;-1.528;2023-07-02T03:05:21;19.60;63.40
79055;DHT22;68452;47.186;-1.528;2023-07-02T03:07:47;19.60;63.30
79055;DHT22;68452;47.186;-1.528;2023-07-02T03:10:13;19.60;63.20
79055;DHT22;68452;47.186;-1.528;2023-07-02T03:12:39;19.50;63.30
79055;DHT22;68452;47.186;-1.528;2023-07-02T03:15:05;19.50;63.20
79055;DHT22;68452;47.186;-1.528;2023-07-02T03:17:31;19.50;63.10
79055;DHT22;68452;47.186;-1.528;2023-07-02T03:19:57;19.50;63.10
79055;DHT22;68452;47.186;-1.528;2023-07-02T03:22:23;19.50;63.00
79055;DHT22;68452;47.186;-1.528;2023-07-02T03:24:49;19.50;63.10
79055;DHT22;68452;47.186;-1.528;2023-07-02T03:27:14;19.50;63.20
79055;DHT22;68452;47.186;-1.528;2023-07-02T03:29:40;19.50;63.00
79055;DHT22;68452;47.186;-1.528;2023-07-02T03:32:07;19.50;63.20
79055;DHT22;68452;47.186;-1.528;2023-07-02T03:34:33;19.40;63.30
79055;DHT22;68452;47.186;-1.528;2023-07-02T03:36:58;19.40;63.20
79055;DHT22;68452;47.186;-1.528;2023-07-02T03:39:25;19.40;62.90
79055;DHT22;68452;47.186;-1.528;2023-07-02T03:41:51;19.40;63.10
79055;DHT22;68452;47.186;-1.528;2023-07-02T03:44:17;19.30;63.00
79055;DHT22;68452;47.186;-1.528;2023-07-02T03:46:43;19.30;63.10
79055;DHT22;68452;47.186;-1.528;2023-07-02T03:49:09;19.30;63.00
79055;DHT22;68452;47.186;-1.528;2023-07-02T03:51:35;19.30;63.10
79055;DHT22;68452;47.186;-1.528;2023-07-02T03:54:01;19.30;63.00
79055;DHT22;68452;47.186;-1.528;2023-07-02T03:56:27;19.30;62.90
79055;DHT22;68452;47.186;-1.528;2023-07-02T03:58:53;19.30;63.10
79055;DHT22;68452;47.186;-1.528;2023-07-02T04:01:19;19.30;63.10
79055;DHT22;68452;47.186;-1.528;2023-07-02T04:03:48;19.30;63.00
79055;DHT22;68452;47.186;-1.528;2023-07-02T04:06:14;19.30;62.90
79055;DHT22;68452;47.186;-1.528;2023-07-02T04:08:41;19.30;62.80
79055;DHT22;68452;47.186;-1.528;2023-07-02T04:11:07;19.20;62.80
79055;DHT22;68452;47.186;-1.528;2023-07-02T04:13:32;19.20;62.90
79055;DHT22;68452;47.186;-1.528;2023-07-02T04:15:58;19.20;62.90
79055;DHT22;68452;47.186;-1.528;2023-07-02T04:18:24;19.20;62.80
79055;DHT22;68452;47.186;-1.528;2023-07-02T04:20:50;19.20;62.80
79055;DHT22;68452;47.186;-1.528;2023-07-02T04:23:16;19.20;62.90
79055;DHT22;68452;47.186;-1.528;2023-07-02T04:25:42;19.10;62.90
79055;DHT22;68452;47.186;-1.528;2023-07-02T04:28:08;19.10;63.00
79055;DHT22;68452;47.186;-1.528;2023-07-02T04:30:33;19.10;63.10
79055;DHT22;68452;47.186;-1.528;2023-07-02T04:33:00;19.20;63.30
79055;DHT22;68452;47.186;-1.528;2023-07-02T04:35:26;19.20;63.20
79055;DHT22;68452;47.186;-1.528;2023-07-02T04:37:52;19.20;63.40
79055;DHT22;68452;47.186;-1.528;2023-07-02T04:40:17;19.10;63.30
79055;DHT22;68452;47.186;-1.528;2023-07-02T04:42:43;19.10;63.40
79055;DHT22;68452;47.186;-1.528;2023-07-02T04:45:13;19.10;63.30
79055;DHT22;68452;47.186;-1.528;2023-07-02T04:47:44;19.10;63.20
79055;DHT22;68452;47.186;-1.528;2023-07-02T04:50:10;19.10;63.30
79055;DHT22;68452;47.186;-1.528;2023-07-02T04:52:38;19.10;63.50
79055;DHT22;68452;47.186;-1.528;2023-07-02T04:55:04;19.10;63.40
79055;DHT22;68452;47.186;-1.528;2023-07-02T04:57:30;19.10;63.30
79055;DHT22;68452;47.186;-1.528;2023-07-02T04:59:56;19.10;63.40
79055;DHT22;68452;47.186;-1.528;2023-07-02T05:02:22;19.10;63.40
79055;DHT22;68452;47.186;-1.528;2023-07-02T05:04:48;19.10;63.30
79055;DHT22;68452;47.186;-1.528;2023-07-02T05:07:15;19.10;63.30
79055;DHT22;68452;47.186;-1.528;2023-07-02T05:09:41;19.10;63.40
79055;DHT22;68452;47.186;-1.528;2023-07-02T05:12:07;19.10;63.50
79055;DHT22;68452;47.186;-1.528;2023-07-02T05:14:33;19.10;63.40
79055;DHT22;68452;47.186;-1.528;2023-07-02T05:16:59;19.10;63.50
79055;DHT22;68452;47.186;-1.528;2023-07-02T05:19:24;19.20;63.60
79055;DHT22;68452;47.186;-1.528;2023-07-02T05:21:50;19.10;63.50
79055;DHT22;68452;47.186;-1.528;2023-07-02T05:24:16;19.10;63.50
79055;DHT22;68452;47.186;-1.528;2023-07-02T05:26:42;19.20;63.50
79055;DHT22;68452;47.186;-1.528;2023-07-02T05:29:08;19.20;63.60
79055;DHT22;68452;47.186;-1.528;2023-07-02T05:31:33;19.20;63.80
79055;DHT22;68452;47.186;-1.528;2023-07-02T05:33:59;19.20;63.90
79055;DHT22;68452;47.186;-1.528;2023-07-02T05:36:25;19.20;63.80
79055;DHT22;68452;47.186;-1.528;2023-07-02T05:38:51;19.20;64.00
79055;DHT22;68452;47.186;-1.528;2023-07-02T05:41:22;19.20;64.20
79055;DHT22;68452;47.186;-1.528;2023-07-02T05:43:48;19.30;64.20
79055;DHT22;68452;47.186;-1.528;2023-07-02T05:46:15;19.30;64.40
79055;DHT22;68452;47.186;-1.528;2023-07-02T05:48:44;19.30;64.50
79055;DHT22;68452;47.186;-1.528;2023-07-02T05:51:09;19.30;64.60
79055;DHT22;68452;47.186;-1.528;2023-07-02T05:53:37;19.40;64.80
79055;DHT22;68452;47.186;-1.528;2023-07-02T05:56:03;19.40;64.80
79055;DHT22;68452;47.186;-1.528;2023-07-02T05:58:29;19.40;64.90
79055;DHT22;68452;47.186;-1.528;2023-07-02T06:00:55;19.50;65.00
79055;DHT22;68452;47.186;-1.528;2023-07-02T06:03:21;19.50;65.20
79055;DHT22;68452;47.186;-1.528;2023-07-02T06:05:48;19.50;65.30
79055;DHT22;68452;47.186;-1.528;2023-07-02T06:08:17;19.50;65.20
79055;DHT22;68452;47.186;-1.528;2023-07-02T06:10:46;19.60;65.30
79055;DHT22;68452;47.186;-1.528;2023-07-02T06:13:12;19.60;65.30
79055;DHT22;68452;47.186;-1.528;2023-07-02T06:15:38;19.70;65.40
79055;DHT22;68452;47.186;-1.528;2023-07-02T06:18:04;19.70;65.40
79055;DHT22;68452;47.186;-1.528;2023-07-02T06:20:30;19.70;65.40
79055;DHT22;68452;47.186;-1.528;2023-07-02T06:22:56;19.70;65.20
79055;DHT22;68452;47.186;-1.528;2023-07-02T06:25:22;19.70;65.20
79055;DHT22;68452;47.186;-1.528;2023-07-02T06:27:48;19.70;65.20
79055;DHT22;68452;47.186;-1.528;2023-07-02T06:30:14;19.80;65.30
79055;DHT22;68452;47.186;-1.528;2023-07-02T06:32:40;19.80;65.20
79055;DHT22;68452;47.186;-1.528;2023-07-02T06:35:06;19.80;65.10
79055;DHT22;68452;47.186;-1.528;2023-07-02T06:37:32;19.80;65.00
79055;DHT22;68452;47.186;-1.528;2023-07-02T06:39:58;19.80;65.10
79055;DHT22;68452;47.186;-1.528;2023-07-02T06:42:25;19.90;65.00
79055;DHT22;68452;47.186;-1.528;2023-07-02T06:44:51;19.80;64.70
79055;DHT22;68452;47.186;-1.528;2023-07-02T06:47:17;19.80;64.80
79055;DHT22;68452;47.186;-1.528;2023-07-02T06:49:43;19.90;64.60
79055;DHT22;68452;47.186;-1.528;2023-07-02T06:52:09;19.90;64.80
79055;DHT22;68452;47.186;-1.528;2023-07-02T06:54:35;20.00;64.90
79055;DHT22;68452;47.186;-1.528;2023-07-02T06:57:01;20.00;64.60
79055;DHT22;68452;47.186;-1.528;2023-07-02T06:59:27;20.10;64.50
79055;DHT22;68452;47.186;-1.528;2023-07-02T07:01:53;20.10;64.30
79055;DHT22;68452;47.186;-1.528;2023-07-02T07:04:19;20.10;64.00
79055;DHT22;68452;47.186;-1.528;2023-07-02T07:06:44;20.10;63.80
79055;DHT22;68452;47.186;-1.528;2023-07-02T07:09:11;20.10;63.50
79055;DHT22;68452;47.186;-1.528;2023-07-02T07:11:37;20.20;63.50
79055;DHT22;68452;47.186;-1.528;2023-07-02T07:14:02;20.20;63.20
79055;DHT22;68452;47.186;-1.528;2023-07-02T07:16:28;20.30;63.10
79055;DHT22;68452;47.186;-1.528;2023-07-02T07:18:54;20.40;63.00
79055;DHT22;68452;47.186;-1.528;2023-07-02T07:21:20;20.40;62.90
79055;DHT22;68452;47.186;-1.528;2023-07-02T07:23:46;20.40;62.40
79055;DHT22;68452;47.186;-1.528;2023-07-02T07:26:11;20.50;62.30
79055;DHT22;68452;47.186;-1.528;2023-07-02T07:28:37;20.60;62.20
79055;DHT22;68452;47.186;-1.528;2023-07-02T07:31:03;20.60;61.60
79055;DHT22;68452;47.186;-1.528;2023-07-02T07:33:29;20.70;61.10
79055;DHT22;68452;47.186;-1.528;2023-07-02T07:35:55;20.70;60.70
79055;DHT22;68452;47.186;-1.528;2023-07-02T07:38:21;20.80;61.00
79055;DHT22;68452;47.186;-1.528;2023-07-02T07:40:47;20.80;60.10
79055;DHT22;68452;47.186;-1.528;2023-07-02T07:43:12;20.80;59.60
79055;DHT22;68452;47.186;-1.528;2023-07-02T07:45:38;20.90;59.70
79055;DHT22;68452;47.186;-1.528;2023-07-02T07:48:07;20.80;58.80
79055;DHT22;68452;47.186;-1.528;2023-07-02T07:50:33;20.90;58.50
79055;DHT22;68452;47.186;-1.528;2023-07-02T07:52:59;20.90;58.60
79055;DHT22;68452;47.186;-1.528;2023-07-02T07:55:25;21.00;58.80
79055;DHT22;68452;47.186;-1.528;2023-07-02T07:57:51;21.00;57.10
79055;DHT22;68452;47.186;-1.528;2023-07-02T08:00:17;21.00;57.20
79055;DHT22;68452;47.186;-1.528;2023-07-02T08:02:44;21.00;56.60
79055;DHT22;68452;47.186;-1.528;2023-07-02T08:05:10;21.00;56.30
79055;DHT22;68452;47.186;-1.528;2023-07-02T08:07:36;21.00;56.30
79055;DHT22;68452;47.186;-1.528;2023-07-02T08:10:02;21.00;55.90
79055;DHT22;68452;47.186;-1.528;2023-07-02T08:12:28;21.10;56.40
79055;DHT22;68452;47.186;-1.528;2023-07-02T08:14:57;21.10;56.40
79055;DHT22;68452;47.186;-1.528;2023-07-02T08:17:23;21.00;55.10
79055;DHT22;68452;47.186;-1.528;2023-07-02T08:19:49;21.10;55.00
79055;DHT22;68452;47.186;-1.528;2023-07-02T08:22:15;21.10;55.00
79055;DHT22;68452;47.186;-1.528;2023-07-02T08:24:41;21.10;54.00
79055;DHT22;68452;47.186;-1.528;2023-07-02T08:27:08;21.10;53.60
79055;DHT22;68452;47.186;-1.528;2023-07-02T08:29:34;21.10;53.80
79055;DHT22;68452;47.186;-1.528;2023-07-02T08:32:00;21.20;54.40
79055;DHT22;68452;47.186;-1.528;2023-07-02T08:34:25;21.20;52.90
79055;DHT22;68452;47.186;-1.528;2023-07-02T08:36:51;21.20;52.20
79055;DHT22;68452;47.186;-1.528;2023-07-02T08:39:17;21.30;51.50
79055;DHT22;68452;47.186;-1.528;2023-07-02T08:41:44;21.40;51.80
79055;DHT22;68452;47.186;-1.528;2023-07-02T08:44:16;21.40;51.70
79055;DHT22;68452;47.186;-1.528;2023-07-02T08:46:43;21.50;51.50
79055;DHT22;68452;47.186;-1.528;2023-07-02T08:49:09;21.60;52.20
79055;DHT22;68452;47.186;-1.528;2023-07-02T08:51:35;21.60;52.10
79055;DHT22;68452;47.186;-1.528;2023-07-02T08:54:04;21.70;51.50
79055;DHT22;68452;47.186;-1.528;2023-07-02T08:56:31;21.70;51.30
79055;DHT22;68452;47.186;-1.528;2023-07-02T08:58:57;21.80;50.70
79055;DHT22;68452;47.186;-1.528;2023-07-02T09:01:23;21.80;50.80
79055;DHT22;68452;47.186;-1.528;2023-07-02T09:03:50;21.80;50.40
79055;DHT22;68452;47.186;-1.528;2023-07-02T09:06:18;21.80;50.20
79055;DHT22;68452;47.186;-1.528;2023-07-02T09:08:45;21.80;50.90
79055;DHT22;68452;47.186;-1.528;2023-07-02T09:13:51;21.80;51.00
79055;DHT22;68452;47.186;-1.528;2023-07-02T09:16:29;21.90;49.90
79055;DHT22;68452;47.186;-1.528;2023-07-02T09:19:02;21.90;50.60
79055;DHT22;68452;47.186;-1.528;2023-07-02T09:24:18;22.00;50.30
79055;DHT22;68452;47.186;-1.528;2023-07-02T09:26:55;22.10;51.30
79055;DHT22;68452;47.186;-1.528;2023-07-02T09:29:28;22.10;50.30
79055;DHT22;68452;47.186;-1.528;2023-07-02T09:32:04;22.10;50.10
79055;DHT22;68452;47.186;-1.528;2023-07-02T09:34:37;22.10;49.40
79055;DHT22;68452;47.186;-1.528;2023-07-02T09:37:05;22.10;50.20
79055;DHT22;68452;47.186;-1.528;2023-07-02T09:39:36;22.10;49.50
79055;DHT22;68452;47.186;-1.528;2023-07-02T09:42:05;22.10;50.10
79055;DHT22;68452;47.186;-1.528;2023-07-02T09:44:33;22.20;50.00
79055;DHT22;68452;47.186;-1.528;2023-07-02T09:47:07;22.20;50.00
79055;DHT22;68452;47.186;-1.528;2023-07-02T09:49:38;22.20;49.20
79055;DHT22;68452;47.186;-1.528;2023-07-02T09:52:11;22.30;48.80
79055;DHT22;68452;47.186;-1.528;2023-07-02T09:54:38;22.30;48.30
79055;DHT22;68452;47.186;-1.528;2023-07-02T09:57:06;22.40;49.30
79055;DHT22;68452;47.186;-1.528;2023-07-02T09:59:33;22.50;48.30
79055;DHT22;68452;47.186;-1.528;2023-07-02T10:02:00;22.60;48.50
79055;DHT22;68452;47.186;-1.528;2023-07-02T10:04:27;22.70;49.00
79055;DHT22;68452;47.186;-1.528;2023-07-02T10:06:57;22.70;48.30
79055;DHT22;68452;47.186;-1.528;2023-07-02T10:09:37;22.80;49.10
79055;DHT22;68452;47.186;-1.528;2023-07-02T10:12:20;22.70;49.10
79055;DHT22;68452;47.186;-1.528;2023-07-02T10:14:49;22.70;48.90
79055;DHT22;68452;47.186;-1.528;2023-07-02T10:19:55;22.60;48.30
79055;DHT22;68452;47.186;-1.528;2023-07-02T10:22:23;22.60;49.30
79055;DHT22;68452;47.186;-1.528;2023-07-02T10:24:55;22.70;49.00
79055;DHT22;68452;47.186;-1.528;2023-07-02T10:27:39;22.60;47.70
79055;DHT22;68452;47.186;-1.528;2023-07-02T10:30:07;22.70;48.30
79055;DHT22;68452;47.186;-1.528;2023-07-02T10:32:34;22.80;48.00
79055;DHT22;68452;47.186;-1.528;2023-07-02T10:35:27;22.90;47.60
79055;DHT22;68452;47.186;-1.528;2023-07-02T10:37:58;22.90;48.40
79055;DHT22;68452;47.186;-1.528;2023-07-02T10:40:24;23.10;48.10
79055;DHT22;68452;47.186;-1.528;2023-07-02T10:42:51;23.10;47.70
79055;DHT22;68452;47.186;-1.528;2023-07-02T10:45:18;23.10;48.00
79055;DHT22;68452;47.186;-1.528;2023-07-02T10:47:44;23.30;47.90
79055;DHT22;68452;47.186;-1.528;2023-07-02T10:50:20;23.40;47.70
79055;DHT22;68452;47.186;-1.528;2023-07-02T10:52:47;23.30;47.40
79055;DHT22;68452;47.186;-1.528;2023-07-02T10:55:21;23.30;48.70
79055;DHT22;68452;47.186;-1.528;2023-07-02T10:57:48;23.20;47.60
79055;DHT22;68452;47.186;-1.528;2023-07-02T11:00:17;23.00;48.00
79055;DHT22;68452;47.186;-1.528;2023-07-02T11:02:43;23.00;47.80
79055;DHT22;68452;47.186;-1.528;2023-07-02T11:05:10;23.00;49.00
79055;DHT22;68452;47.186;-1.528;2023-07-02T11:07:39;23.00;48.30
79055;DHT22;68452;47.186;-1.528;2023-07-02T11:10:06;23.00;48.40
79055;DHT22;68452;47.186;-1.528;2023-07-02T11:12:33;22.90;48.20
79055;DHT22;68452;47.186;-1.528;2023-07-02T11:15:15;23.10;48.00
79055;DHT22;68452;47.186;-1.528;2023-07-02T11:17:43;23.70;47.70
79055;DHT22;68452;47.186;-1.528;2023-07-02T11:20:11;24.00;47.00
79055;DHT22;68452;47.186;-1.528;2023-07-02T11:22:38;24.00;46.00
79055;DHT22;68452;47.186;-1.528;2023-07-02T11:25:11;24.00;46.00
79055;DHT22;68452;47.186;-1.528;2023-07-02T11:27:37;24.00;46.20
79055;DHT22;68452;47.186;-1.528;2023-07-02T11:30:04;24.10;46.80
79055;DHT22;68452;47.186;-1.528;2023-07-02T11:32:30;24.20;45.90
79055;DHT22;68452;47.186;-1.528;2023-07-02T11:34:56;24.00;46.10
79055;DHT22;68452;47.186;-1.528;2023-07-02T11:37:22;23.90;46.90
79055;DHT22;68452;47.186;-1.528;2023-07-02T11:39:48;23.70;46.60
79055;DHT22;68452;47.186;-1.528;2023-07-02T11:42:14;23.60;46.80
79055;DHT22;68452;47.186;-1.528;2023-07-02T11:44:40;23.70;47.70
79055;DHT22;68452;47.186;-1.528;2023-07-02T11:47:06;23.70;46.50
79055;DHT22;68452;47.186;-1.528;2023-07-02T11:49:33;23.50;46.60
79055;DHT22;68452;47.186;-1.528;2023-07-02T11:51:59;23.40;47.00
79055;DHT22;68452;47.186;-1.528;2023-07-02T11:54:26;23.30;47.20
79055;DHT22;68452;47.186;-1.528;2023-07-02T11:56:52;23.20;47.70
79055;DHT22;68452;47.186;-1.528;2023-07-02T11:59:19;23.20;48.00
79055;DHT22;68452;47.186;-1.528;2023-07-02T12:01:46;23.20;48.00
79055;DHT22;68452;47.186;-1.528;2023-07-02T12:04:16;23.30;48.00
79055;DHT22;68452;47.186;-1.528;2023-07-02T12:06:43;23.40;48.20
79055;DHT22;68452;47.186;-1.528;2023-07-02T12:09:10;23.50;48.30
79055;DHT22;68452;47.186;-1.528;2023-07-02T12:11:36;23.50;48.80
79055;DHT22;68452;47.186;-1.528;2023-07-02T12:14:02;23.50;48.50
79055;DHT22;68452;47.186;-1.528;2023-07-02T12:16:28;23.50;47.90
79055;DHT22;68452;47.186;-1.528;2023-07-02T12:18:54;23.50;47.60
79055;DHT22;68452;47.186;-1.528;2023-07-02T12:21:20;23.40;48.10
79055;DHT22;68452;47.186;-1.528;2023-07-02T12:23:46;23.50;48.30
79055;DHT22;68452;47.186;-1.528;2023-07-02T12:26:12;23.40;48.50
79055;DHT22;68452;47.186;-1.528;2023-07-02T12:28:38;23.40;48.20
79055;DHT22;68452;47.186;-1.528;2023-07-02T12:31:05;23.30;48.50
79055;DHT22;68452;47.186;-1.528;2023-07-02T12:33:32;23.30;49.00
79055;DHT22;68452;47.186;-1.528;2023-07-02T12:35:58;23.30;48.80
79055;DHT22;68452;47.186;-1.528;2023-07-02T12:38:25;23.30;49.10
79055;DHT22;68452;47.186;-1.528;2023-07-02T12:40:51;23.20;49.10
79055;DHT22;68452;47.186;-1.528;2023-07-02T12:43:17;23.30;49.40
79055;DHT22;68452;47.186;-1.528;2023-07-02T12:45:45;23.30;49.50
79055;DHT22;68452;47.186;-1.528;2023-07-02T12:48:12;23.30;50.10
79055;DHT22;68452;47.186;-1.528;2023-07-02T12:50:39;23.30;50.10
79055;DHT22;68452;47.186;-1.528;2023-07-02T12:53:06;23.30;50.10
79055;DHT22;68452;47.186;-1.528;2023-07-02T12:55:32;23.30;50.10
79055;DHT22;68452;47.186;-1.528;2023-07-02T12:58:00;23.20;50.20
79055;DHT22;68452;47.186;-1.528;2023-07-02T13:00:26;23.20;49.80
79055;DHT22;68452;47.186;-1.528;2023-07-02T13:02:52;23.20;50.10
79055;DHT22;68452;47.186;-1.528;2023-07-02T13:05:18;23.20;50.10
79055;DHT22;68452;47.186;-1.528;2023-07-02T13:07:44;23.30;50.30
79055;DHT22;68452;47.186;-1.528;2023-07-02T13:10:10;23.30;50.40
79055;DHT22;68452;47.186;-1.528;2023-07-02T13:12:36;23.30;50.10
79055;DHT22;68452;47.186;-1.528;2023-07-02T13:15:02;23.30;50.10
79055;DHT22;68452;47.186;-1.528;2023-07-02T13:17:28;23.30;49.70
79055;DHT22;68452;47.186;-1.528;2023-07-02T13:19:54;23.30;49.70
79055;DHT22;68452;47.186;-1.528;2023-07-02T13:22:21;23.30;49.50
79055;DHT22;68452;47.186;-1.528;2023-07-02T13:24:47;23.30;49.10
79055;DHT22;68452;47.186;-1.528;2023-07-02T13:27:15;23.30;49.70
79055;DHT22;68452;47.186;-1.528;2023-07-02T13:29:42;23.40;49.70
79055;DHT22;68452;47.186;-1.528;2023-07-02T13:32:09;23.40;49.80
79055;DHT22;68452;47.186;-1.528;2023-07-02T13:34:37;23.50;50.20
79055;DHT22;68452;47.186;-1.528;2023-07-02T13:37:03;23.60;49.60
79055;DHT22;68452;47.186;-1.528;2023-07-02T13:39:30;23.80;49.30
79055;DHT22;68452;47.186;-1.528;2023-07-02T13:41:56;23.70;49.00
79055;DHT22;68452;47.186;-1.528;2023-07-02T13:44:22;23.70;48.60
79055;DHT22;68452;47.186;-1.528;2023-07-02T13:46:49;23.80;48.70
79055;DHT22;68452;47.186;-1.528;2023-07-02T13:49:15;23.80;49.00
79055;DHT22;68452;47.186;-1.528;2023-07-02T13:51:41;23.90;49.10
79055;DHT22;68452;47.186;-1.528;2023-07-02T13:54:06;23.90;49.30
79055;DHT22;68452;47.186;-1.528;2023-07-02T13:56:32;23.80;48.80
79055;DHT22;68452;47.186;-1.528;2023-07-02T13:59:00;23.90;48.90
79055;DHT22;68452;47.186;-1.528;2023-07-02T14:01:26;23.80;48.80
79055;DHT22;68452;47.186;-1.528;2023-07-02T14:03:52;23.80;49.00
79055;DHT22;68452;47.186;-1.528;2023-07-02T14:06:20;23.80;49.00
79055;DHT22;68452;47.186;-1.528;2023-07-02T14:08:46;23.80;48.60
79055;DHT22;68452;47.186;-1.528;2023-07-02T14:11:12;23.80;48.50
79055;DHT22;68452;47.186;-1.528;2023-07-02T14:13:39;23.80;48.70
79055;DHT22;68452;47.186;-1.528;2023-07-02T14:16:05;23.80;48.50
79055;DHT22;68452;47.186;-1.528;2023-07-02T14:18:31;23.80;48.80
79055;DHT22;68452;47.186;-1.528;2023-07-02T14:20:58;23.80;48.90
79055;DHT22;68452;47.186;-1.528;2023-07-02T14:23:24;23.80;48.80
79055;DHT22;68452;47.186;-1.528;2023-07-02T14:25:50;23.70;49.20
79055;DHT22;68452;47.186;-1.528;2023-07-02T14:28:17;23.70;48.80
79055;DHT22;68452;47.186;-1.528;2023-07-02T14:30:43;23.70;48.60
79055;DHT22;68452;47.186;-1.528;2023-07-02T14:33:09;23.70;48.60
79055;DHT22;68452;47.186;-1.528;2023-07-02T14:35:36;23.60;48.60
79055;DHT22;68452;47.186;-1.528;2023-07-02T14:38:02;23.60;48.90
79055;DHT22;68452;47.186;-1.528;2023-07-02T14:40:28;23.50;48.80
79055;DHT22;68452;47.186;-1.528;2023-07-02T14:42:54;23.50;49.00
79055;DHT22;68452;47.186;-1.528;2023-07-02T14:45:20;23.40;49.00
79055;DHT22;68452;47.186;-1.528;2023-07-02T14:47:46;23.30;49.00
79055;DHT22;68452;47.186;-1.528;2023-07-02T14:50:12;23.30;49.50
79055;DHT22;68452;47.186;-1.528;2023-07-02T14:52:38;23.20;49.80
79055;DHT22;68452;47.186;-1.528;2023-07-02T14:55:04;23.20;49.90
79055;DHT22;68452;47.186;-1.528;2023-07-02T14:57:30;23.20;49.80
79055;DHT22;68452;47.186;-1.528;2023-07-02T14:59:56;23.20;50.20
79055;DHT22;68452;47.186;-1.528;2023-07-02T15:02:22;23.30;50.30
79055;DHT22;68452;47.186;-1.528;2023-07-02T15:04:47;23.30;50.00
79055;DHT22;68452;47.186;-1.528;2023-07-02T15:07:13;23.40;49.70
79055;DHT22;68452;47.186;-1.528;2023-07-02T15:09:39;23.40;49.30
79055;DHT22;68452;47.186;-1.528;2023-07-02T15:12:05;23.50;49.60
79055;DHT22;68452;47.186;-1.528;2023-07-02T15:14:30;23.60;49.80
79055;DHT22;68452;47.186;-1.528;2023-07-02T15:16:56;23.70;49.80
79055;DHT22;68452;47.186;-1.528;2023-07-02T15:19:22;23.80;49.50
79055;DHT22;68452;47.186;-1.528;2023-07-02T15:21:49;23.80;49.60
79055;DHT22;68452;47.186;-1.528;2023-07-02T15:24:15;23.90;49.90
79055;DHT22;68452;47.186;-1.528;2023-07-02T15:26:41;24.00;49.40